Time;durP1;ratioP1;P1;durP2;ratioP2;P2;SDS_P1;SDS_P2;PMS_P1;PMS_P2;Temp;Humidity;BMP_temperature;BMP_pressure;BME280_temperature;BME280_humidity;BME280_pressure;Samples;Min_cycle;Max_cycle;Signal;HPM_P1;HPM_P2
2023/05/23 00:00:21;;;;;;;10.83;9.90;;;;;;;14.97;100.00;100149.09;4994590;28;20247;-79
2023/05/23 00:02:47;;;;;;;8.23;7.63;;;;;;;15.03;100.00;100153.19;4985582;28;20249;-77
2023/05/23 00:05:14;;;;;;;2.77;2.57;;;;;;;14.98;100.00;100150.69;4984998;28;20683;-77
2023/05/23 00:07:40;;;;;;;6.83;6.23;;;;;;;14.92;100.00;100154.84;4992586;28;20231;-78
2023/05/23 00:10:05;;;;;;;3.93;3.60;;;;;;;14.90;100.00;100160.69;4989668;28;20194;-77
2023/05/23 00:12:32;;;;;;;7.53;6.30;;;;;;;14.94;100.00;100158.03;4981570;28;20194;-76
2023/05/23 00:14:58;;;;;;;5.47;5.07;;;;;;;14.92;100.00;100152.09;4991992;28;20174;-78
2023/05/23 00:17:24;;;;;;;6.67;6.13;;;;;;;14.89;100.00;100153.56;4987468;28;20540;-77
2023/05/23 00:19:49;;;;;;;14.83;7.53;;;;;;;14.87;100.00;100153.13;4982564;28;20174;-77
2023/05/23 00:22:15;;;;;;;6.03;5.73;;;;;;;14.84;100.00;100149.13;4992747;28;20243;-77
2023/05/23 00:24:40;;;;;;;5.33;5.03;;;;;;;14.83;100.00;100143.97;4984894;28;20197;-77
2023/05/23 00:27:06;;;;;;;13.93;8.87;;;;;;;14.82;100.00;100145.91;4984662;28;20173;-78
2023/05/23 00:29:32;;;;;;;8.43;3.87;;;;;;;14.82;100.00;100145.91;4993257;28;20181;-78
2023/05/23 00:31:57;;;;;;;8.80;3.60;;;;;;;14.82;100.00;100156.13;4973049;28;20600;-77
2023/05/23 00:34:22;;;;;;;3.77;3.47;;;;;;;14.85;100.00;100149.91;4964144;28;20186;-77
2023/05/23 00:36:49;;;;;;;5.63;5.13;;;;;;;14.85;100.00;100145.22;4989947;28;20640;-77
2023/05/23 00:39:20;;;;;;;7.13;6.27;;;;;;;14.89;100.00;100156.31;4984759;28;20263;-77
2023/05/23 00:41:47;;;;;;;5.10;4.70;;;;;;;14.89;100.00;100145.31;4966859;28;20201;-77
2023/05/23 00:44:12;;;;;;;7.33;6.73;;;;;;;14.89;100.00;100142.56;4968349;28;20236;-77
2023/05/23 00:46:38;;;;;;;5.20;4.83;;;;;;;14.89;100.00;100137.06;4984974;28;20182;-77
2023/05/23 00:49:04;;;;;;;4.93;4.63;;;;;;;14.92;100.00;100138.34;4966787;28;20181;-77
2023/05/23 00:51:30;;;;;;;5.13;4.83;;;;;;;14.94;100.00;100141.53;4984833;28;20184;-78
2023/05/23 00:53:57;;;;;;;9.97;7.13;;;;;;;14.89;100.00;100129.59;4974981;28;20200;-77
2023/05/23 00:56:25;;;;;;;4.03;3.83;;;;;;;14.87;100.00;100139.38;4967335;28;20181;-77
2023/05/23 00:58:51;;;;;;;5.10;4.73;;;;;;;14.88;100.00;100136.25;4992623;28;20185;-77
2023/05/23 01:01:17;;;;;;;4.63;4.33;;;;;;;14.90;100.00;100144.19;4987832;28;20224;-77
2023/05/23 01:03:44;;;;;;;7.33;6.90;;;;;;;14.95;100.00;100141.19;4963661;28;20225;-76
2023/05/23 01:06:10;;;;;;;3.43;3.17;;;;;;;15.03;100.00;100136.69;4971610;28;20268;-76
2023/05/23 01:08:35;;;;;;;3.00;2.83;;;;;;;15.06;100.00;100145.06;4987901;28;20561;-78
2023/05/23 01:11:07;;;;;;;2.73;2.53;;;;;;;15.10;100.00;100137.72;4989977;28;20184;-77
2023/05/23 01:13:41;;;;;;;11.83;5.30;;;;;;;15.14;100.00;100133.09;4981033;28;20229;-77
2023/05/23 01:16:15;;;;;;;1.77;1.60;;;;;;;15.18;100.00;100139.50;4983128;28;20673;-78
2023/05/23 01:19:01;;;;;;;1.50;1.50;;;;;;;15.26;100.00;100137.75;4992375;28;20185;-77
2023/05/23 01:21:28;;;;;;;4.03;3.77;;;;;;;15.28;100.00;100132.69;4986328;28;20212;-77
2023/05/23 01:24:02;;;;;;;6.73;6.30;;;;;;;15.24;100.00;100142.03;4982531;28;20296;-78
2023/05/23 01:26:47;;;;;;;17.30;13.67;;;;;;;15.20;100.00;100136.41;4991944;28;20327;-78
2023/05/23 01:29:33;;;;;;;12.53;7.17;;;;;;;15.16;100.00;100141.00;4985918;28;20177;-79
2023/05/23 01:32:00;;;;;;;19.00;14.43;;;;;;;15.08;100.00;100148.25;4975460;28;20641;-79
2023/05/23 01:34:27;;;;;;;2.80;2.67;;;;;;;14.92;100.00;100152.91;4995370;28;20550;-79
2023/05/23 01:36:54;;;;;;;15.50;12.77;;;;;;;14.81;100.00;100151.75;4996593;28;20192;-79
2023/05/23 01:39:20;;;;;;;14.07;12.97;;;;;;;14.76;100.00;100157.50;4997310;28;20184;-78
2023/05/23 01:41:46;;;;;;;8.07;7.43;;;;;;;14.74;100.00;100160.59;4996677;28;20240;-79
2023/05/23 01:44:11;;;;;;;6.63;6.03;;;;;;;14.76;100.00;100168.53;4997056;28;20236;-79
2023/05/23 01:46:38;;;;;;;28.93;6.30;;;;;;;14.78;100.00;100169.78;4996352;28;20593;-79
2023/05/23 01:49:05;;;;;;;3.03;2.87;;;;;;;14.71;100.00;100174.22;4997026;28;20663;-79
2023/05/23 01:51:32;;;;;;;12.97;8.40;;;;;;;14.65;100.00;100164.63;4988639;28;20193;-78
2023/05/23 01:53:58;;;;;;;12.77;10.33;;;;;;;14.62;100.00;100168.06;4996932;28;20646;-79
2023/05/23 01:56:25;;;;;;;15.63;10.70;;;;;;;14.47;100.00;100170.38;4996421;28;20200;-79
2023/05/23 01:58:51;;;;;;;16.00;14.30;;;;;;;14.41;100.00;100179.16;4978689;28;20189;-78
2023/05/23 02:01:16;;;;;;;11.97;11.03;;;;;;;14.36;100.00;100184.88;4996366;28;20196;-79
2023/05/23 02:03:42;;;;;;;11.30;10.40;;;;;;;14.28;100.00;100181.88;4996390;28;20208;-76
2023/05/23 02:06:07;;;;;;;18.40;8.63;;;;;;;14.26;100.00;100184.19;4996512;28;20217;-77
2023/05/23 02:08:32;;;;;;;10.47;8.30;;;;;;;14.19;100.00;100181.22;4996300;28;20192;-79
2023/05/23 02:10:58;;;;;;;7.70;6.80;;;;;;;14.14;100.00;100186.09;4996071;28;20212;-77
2023/05/23 02:13:23;;;;;;;11.10;10.10;;;;;;;14.02;100.00;100181.38;4996530;28;20201;-78
2023/05/23 02:15:48;;;;;;;2.73;2.53;;;;;;;13.98;100.00;100194.22;4996006;28;20185;-78
2023/05/23 02:18:13;;;;;;;7.37;6.87;;;;;;;13.92;100.00;100203.81;4995620;28;20185;-77
2023/05/23 02:20:39;;;;;;;9.27;8.53;;;;;;;13.84;100.00;100191.78;4995825;28;20220;-78
2023/05/23 02:23:05;;;;;;;12.53;10.07;;;;;;;13.82;100.00;100212.47;4995487;28;20300;-78
2023/05/23 02:25:30;;;;;;;15.73;6.70;;;;;;;13.75;100.00;100209.50;4995577;28;20197;-76
2023/05/23 02:27:55;;;;;;;3.47;1.63;;;;;;;13.79;100.00;100230.44;4995309;28;20192;-78
2023/05/23 02:30:20;;;;;;;4.03;3.73;;;;;;;13.74;100.00;100221.59;4995642;28;20235;-77
2023/05/23 02:32:46;;;;;;;4.67;4.20;;;;;;;13.70;100.00;100222.28;4961685;28;20676;-78
2023/05/23 02:35:12;;;;;;;1.60;1.50;;;;;;;13.74;100.00;100230.63;4995596;28;20256;-77
2023/05/23 02:37:37;;;;;;;5.03;4.73;;;;;;;13.76;100.00;100224.81;4994791;28;20184;-78
2023/05/23 02:40:06;;;;;;;8.87;6.33;;;;;;;13.68;100.00;100234.75;4995028;28;20271;-77
2023/05/23 02:42:31;;;;;;;7.67;5.40;;;;;;;13.62;100.00;100230.59;4977605;28;20215;-76
2023/05/23 02:44:57;;;;;;;4.43;4.07;;;;;;;13.59;100.00;100240.28;4994410;28;20221;-78
2023/05/23 02:47:22;;;;;;;3.57;3.37;;;;;;;13.61;100.00;100232.56;4994622;28;20213;-78
2023/05/23 02:49:47;;;;;;;4.40;3.80;;;;;;;13.58;100.00;100243.38;4977761;28;20248;-77
2023/05/23 02:52:12;;;;;;;2.77;2.60;;;;;;;13.60;100.00;100244.69;4977445;28;20644;-78
2023/05/23 02:54:38;;;;;;;1.63;1.53;;;;;;;13.60;100.00;100246.63;4994875;28;20181;-77
2023/05/23 02:57:03;;;;;;;2.20;2.00;;;;;;;13.58;100.00;100244.19;4976957;28;20188;-77
2023/05/23 02:59:29;;;;;;;3.00;2.80;;;;;;;13.52;100.00;100242.00;4994872;28;20181;-77
2023/05/23 03:01:55;;;;;;;3.83;3.57;;;;;;;13.47;100.00;100247.69;4977193;28;20215;-78
2023/05/23 03:04:20;;;;;;;7.07;6.40;;;;;;;13.44;100.00;100251.09;4994590;28;20652;-77
2023/05/23 03:06:46;;;;;;;3.97;3.63;;;;;;;13.39;100.00;100252.91;4975968;28;20209;-76
2023/05/23 03:09:15;;;;;;;5.17;4.70;;;;;;;13.42;100.00;100247.88;4993712;28;20184;-77
2023/05/23 03:11:41;;;;;;;2.27;2.17;;;;;;;13.41;100.00;100238.84;4993698;28;20216;-76
2023/05/23 03:14:06;;;;;;;2.27;2.17;;;;;;;13.39;100.00;100249.34;4993950;28;20181;-76
2023/05/23 03:16:32;;;;;;;10.20;1.83;;;;;;;13.40;100.00;100237.25;4993311;28;20185;-77
2023/05/23 03:18:58;;;;;;;1.70;1.60;;;;;;;13.42;100.00;100245.94;4993664;28;20189;-76
2023/05/23 03:21:23;;;;;;;1.70;1.60;;;;;;;13.43;100.00;100242.06;4993963;28;20677;-76
2023/05/23 03:23:49;;;;;;;2.97;2.77;;;;;;;13.39;100.00;100241.13;4993842;28;20240;-76
2023/05/23 03:26:15;;;;;;;2.03;1.93;;;;;;;13.38;100.00;100239.53;4993431;28;20192;-76
2023/05/23 03:28:40;;;;;;;4.80;4.40;;;;;;;13.34;100.00;100238.59;4975966;28;20660;-76
2023/05/23 03:31:06;;;;;;;1.60;1.50;;;;;;;13.33;100.00;100243.28;4993912;28;20185;-76
2023/05/23 03:33:31;;;;;;;6.30;5.77;;;;;;;13.31;100.00;100242.81;4976065;28;20220;-76
2023/05/23 03:35:57;;;;;;;4.17;3.93;;;;;;;13.29;100.00;100239.56;4993695;28;20189;-77
2023/05/23 03:38:22;;;;;;;4.23;3.93;;;;;;;13.28;100.00;100239.91;4993348;28;20181;-77
2023/05/23 03:40:47;;;;;;;9.33;6.10;;;;;;;13.31;100.00;100239.28;4993735;28;20537;-77
2023/05/23 03:43:12;;;;;;;4.13;3.77;;;;;;;13.32;100.00;100241.69;4993495;28;20232;-77
2023/05/23 03:45:38;;;;;;;1.87;1.77;;;;;;;13.33;100.00;100243.28;4993806;28;20301;-77
2023/05/23 03:48:03;;;;;;;1.50;1.50;;;;;;;13.35;100.00;100242.94;4975966;28;20195;-77
2023/05/23 03:50:28;;;;;;;1.53;1.50;;;;;;;13.35;100.00;100243.75;4993701;28;20189;-77
2023/05/23 03:52:54;;;;;;;1.53;0.77;;;;;;;13.40;100.00;100242.72;4975531;28;20201;-77
2023/05/23 03:55:23;;;;;;;2.10;2.00;;;;;;;13.39;100.00;100235.63;4976332;28;20213;-77
2023/05/23 03:57:50;;;;;;;0.97;0.97;;;;;;;13.36;100.00;100244.53;4975260;28;20566;-76
2023/05/23 04:00:15;;;;;;;5.50;4.03;;;;;;;13.35;100.00;100246.47;4993689;28;20181;-77
2023/05/23 04:02:42;;;;;;;0.63;0.63;;;;;;;13.34;100.00;100244.06;4976203;28;20220;-76
2023/05/23 04:05:09;;;;;;;2.53;2.43;;;;;;;13.38;100.00;100250.50;4993160;28;20690;-77
2023/05/23 04:07:35;;;;;;;0.33;0.33;;;;;;;13.37;100.00;100243.41;4992834;28;20189;-77
2023/05/23 04:10:00;;;;;;;5.77;3.27;;;;;;;13.35;100.00;100238.25;4993200;28;20594;-77
2023/05/23 04:12:26;;;;;;;2.07;1.97;;;;;;;13.36;100.00;100242.59;4992905;28;20251;-76
2023/05/23 04:14:51;;;;;;;4.70;3.50;;;;;;;13.36;100.00;100250.84;4975884;28;20181;-77
2023/05/23 04:17:17;;;;;;;3.67;3.37;;;;;;;13.33;100.00;100245.22;4993567;28;20185;-79
2023/05/23 04:19:43;;;;;;;3.07;1.90;;;;;;;13.30;100.00;100248.59;4995988;28;20181;-78
2023/05/23 04:22:08;;;;;;;0.50;0.50;;;;;;;13.30;100.00;100243.91;4995764;28;20228;-79
2023/05/23 04:24:33;;;;;;;1.13;1.13;;;;;;;13.29;100.00;100250.53;4978681;28;20213;-78
2023/05/23 04:26:59;;;;;;;1.20;1.20;;;;;;;13.27;100.00;100250.09;4995786;28;20189;-78
2023/05/23 04:29:25;;;;;;;0.57;0.57;;;;;;;13.28;100.00;100250.88;4978557;28;20216;-80
2023/05/23 04:31:50;;;;;;;2.67;2.40;;;;;;;13.27;100.00;100250.09;4995353;28;20217;-79
2023/05/23 04:34:16;;;;;;;6.77;6.10;;;;;;;13.28;100.00;100240.72;4994398;28;20672;-80
2023/05/23 04:36:43;;;;;;;4.77;4.47;;;;;;;13.15;100.00;100235.44;4993574;28;20185;-78
2023/05/23 04:39:09;;;;;;;9.63;6.33;;;;;;;13.09;100.00;100243.09;4993834;28;20188;-79
2023/05/23 04:41:35;;;;;;;4.20;3.97;;;;;;;13.11;100.00;100235.31;4976111;28;20209;-79
2023/05/23 04:44:01;;;;;;;7.50;6.30;;;;;;;13.14;100.00;100231.91;4976497;28;20232;-79
2023/05/23 04:46:26;;;;;;;1.90;1.80;;;;;;;13.16;100.00;100232.38;4993531;28;20323;-76
2023/05/23 04:48:53;;;;;;;3.90;2.87;;;;;;;13.29;100.00;100239.56;4986066;28;20242;-79
2023/05/23 04:51:20;;;;;;;2.83;2.67;;;;;;;13.31;100.00;100236.53;4993874;28;20681;-78
2023/05/23 04:53:47;;;;;;;2.10;1.97;;;;;;;13.29;100.00;100236.03;4985242;28;20192;-77
2023/05/23 04:56:12;;;;;;;4.33;3.70;;;;;;;13.28;100.00;100234.44;4968755;28;20196;-77
2023/05/23 04:58:39;;;;;;;2.97;2.57;;;;;;;13.29;100.00;100231.34;4993017;28;20193;-78
2023/05/23 05:01:05;;;;;;;4.17;3.33;;;;;;;13.28;100.00;100235.22;4992780;28;20268;-82
2023/05/23 05:03:31;;;;;;;4.30;3.90;;;;;;;13.27;100.00;100241.84;4975621;28;20307;-76
2023/05/23 05:05:56;;;;;;;2.30;2.20;;;;;;;13.27;100.00;100249.28;4992800;28;20243;-79
2023/05/23 05:08:22;;;;;;;0.90;0.77;;;;;;;13.27;100.00;100247.34;4991796;28;20181;-78
2023/05/23 05:10:47;;;;;;;3.10;2.90;;;;;;;13.24;100.00;100239.78;4992535;28;20177;-78
2023/05/23 05:13:12;;;;;;;2.03;1.93;;;;;;;13.20;100.00;100243.53;4992750;28;20201;-78
2023/05/23 05:15:38;;;;;;;3.87;3.57;;;;;;;13.21;100.00;100243.19;4992568;28;20179;-77
2023/05/23 05:18:03;;;;;;;3.77;3.47;;;;;;;13.22;100.00;100246.75;4992243;28;20216;-78
2023/05/23 05:20:28;;;;;;;3.83;3.53;;;;;;;13.20;100.00;100255.31;4992326;28;20602;-78
2023/05/23 05:22:56;;;;;;;1.70;1.47;;;;;;;13.22;100.00;100247.53;4974543;28;20209;-78
2023/05/23 05:25:21;;;;;;;3.37;3.07;;;;;;;13.20;100.00;100255.31;4974921;28;20227;-78
2023/05/23 05:27:46;;;;;;;4.13;2.53;;;;;;;13.21;100.00;100262.41;4993311;28;20260;-80
2023/05/23 05:30:12;;;;;;;3.37;3.07;;;;;;;13.17;100.00;100253.22;4993497;28;20181;-78
2023/05/23 05:32:37;;;;;;;2.60;2.13;;;;;;;13.17;100.00;100260.63;4993848;28;20259;-78
2023/05/23 05:35:03;;;;;;;4.57;4.17;;;;;;;13.15;100.00;100254.66;4969189;28;20185;-78
2023/05/23 05:37:28;;;;;;;3.50;3.20;;;;;;;13.10;100.00;100263.91;4993543;28;20655;-78
2023/05/23 05:39:55;;;;;;;5.27;4.87;;;;;;;13.08;100.00;100250.50;4993477;28;20239;-77
2023/05/23 05:42:21;;;;;;;8.93;6.13;;;;;;;13.05;100.00;100256.66;4993498;28;20197;-78
2023/05/23 05:44:48;;;;;;;2.40;2.20;;;;;;;12.99;100.00;100262.66;4994038;28;20223;-78
2023/05/23 05:47:13;;;;;;;3.07;2.27;;;;;;;12.98;100.00;100252.84;4975483;28;20196;-79
2023/05/23 05:49:38;;;;;;;5.53;4.77;;;;;;;12.98;100.00;100258.31;4993201;28;20543;-78
2023/05/23 05:52:05;;;;;;;4.40;4.13;;;;;;;13.00;100.00;100256.03;4993136;28;20252;-78
2023/05/23 05:54:31;;;;;;;6.63;3.90;;;;;;;12.97;100.00;100254.78;4975863;28;20216;-78
2023/05/23 05:56:56;;;;;;;2.10;1.90;;;;;;;12.96;100.00;100255.91;4992752;28;20177;-78
2023/05/23 05:59:21;;;;;;;6.57;1.40;;;;;;;12.99;100.00;100249.75;4993399;28;20208;-78
2023/05/23 06:01:47;;;;;;;6.07;3.50;;;;;;;12.97;100.00;100254.78;4975490;28;20224;-78
2023/05/23 06:04:13;;;;;;;1.00;1.00;;;;;;;12.98;100.00;100250.91;4992999;28;20280;-79
2023/05/23 06:06:39;;;;;;;1.43;1.33;;;;;;;13.05;100.00;100248.44;4993222;28;20235;-79
2023/05/23 06:09:04;;;;;;;5.53;4.67;;;;;;;13.06;100.00;100252.00;4975540;28;20216;-78
2023/05/23 06:11:29;;;;;;;3.23;3.00;;;;;;;13.12;100.00;100253.38;4993400;28;20251;-79
2023/05/23 06:13:55;;;;;;;2.20;2.10;;;;;;;13.16;100.00;100256.25;4994491;28;20185;-79
2023/05/23 06:16:20;;;;;;;0.40;0.40;;;;;;;13.22;100.00;100252.22;4975690;28;20252;-79
2023/05/23 06:18:45;;;;;;;3.17;2.97;;;;;;;13.16;100.00;100250.78;4974553;28;20220;-80
2023/05/23 06:21:10;;;;;;;2.30;2.07;;;;;;;13.08;100.00;100247.78;4976956;28;20651;-80
2023/05/23 06:23:36;;;;;;;3.70;3.50;;;;;;;13.08;100.00;100245.03;4994810;28;20762;-80
2023/05/23 06:26:01;;;;;;;1.27;1.27;;;;;;;13.06;100.00;100247.31;4994952;28;20291;-79
2023/05/23 06:28:26;;;;;;;2.17;1.97;;;;;;;13.05;100.00;100240.22;4977115;28;20272;-79
2023/05/23 06:30:52;;;;;;;2.43;1.17;;;;;;;13.02;100.00;100246.38;4994894;28;20181;-79
2023/05/23 06:33:17;;;;;;;0.43;0.43;;;;;;;13.06;100.00;100244.56;4994485;28;20587;-78
2023/05/23 06:35:42;;;;;;;1.63;1.53;;;;;;;13.10;100.00;100245.50;4977022;28;20688;-78
2023/05/23 06:38:08;;;;;;;1.23;1.23;;;;;;;13.16;100.00;100248.84;4993915;28;20189;-79
2023/05/23 06:40:33;;;;;;;2.07;1.97;;;;;;;13.16;100.00;100253.53;4977146;28;20243;-81
2023/05/23 06:42:58;;;;;;;1.83;1.73;;;;;;;13.19;100.00;100241.94;4978086;28;20252;-78
2023/05/23 06:45:24;;;;;;;1.53;1.43;;;;;;;13.17;100.00;100249.66;4994775;28;20564;-79
2023/05/23 06:47:49;;;;;;;3.20;3.00;;;;;;;13.13;100.00;100245.97;4994405;28;20667;-78
2023/05/23 06:50:14;;;;;;;3.27;2.87;;;;;;;13.14;100.00;100251.13;4976383;28;20189;-79
2023/05/23 06:52:41;;;;;;;2.10;1.70;;;;;;;13.16;100.00;100245.28;4994175;28;20204;-78
2023/05/23 06:55:07;;;;;;;3.00;2.80;;;;;;;13.18;100.00;100260.34;4976563;28;20597;-79
2023/05/23 06:57:32;;;;;;;0.93;0.93;;;;;;;13.23;100.00;100256.59;4975982;28;20177;-78
2023/05/23 06:59:57;;;;;;;1.27;1.27;;;;;;;13.27;100.00;100258.31;4994169;28;20240;-79
2023/05/23 07:02:23;;;;;;;1.60;1.50;;;;;;;13.28;100.00;100253.63;4976443;28;20248;-79
2023/05/23 07:04:48;;;;;;;1.33;1.33;;;;;;;13.26;100.00;100250.41;4993324;28;20200;-78
2023/05/23 07:07:13;;;;;;;2.53;2.33;;;;;;;13.21;100.00;100262.41;4979093;28;20204;-79
2023/05/23 07:09:39;;;;;;;3.63;3.43;;;;;;;13.19;100.00;100263.88;4996124;28;20174;-80
2023/05/23 07:12:05;;;;;;;1.30;1.23;;;;;;;13.15;100.00;100269.19;4994875;28;20197;-80
2023/05/23 07:14:30;;;;;;;1.83;1.73;;;;;;;13.14;100.00;100264.81;4977935;28;20186;-79
2023/05/23 07:16:56;;;;;;;3.50;3.30;;;;;;;12.99;100.00;100263.47;4977312;28;20192;-79
2023/05/23 07:19:21;;;;;;;3.77;3.27;;;;;;;12.98;100.00;100266.53;4994791;28;20318;-80
2023/05/23 07:21:46;;;;;;;3.73;2.43;;;;;;;12.86;100.00;100278.22;4977586;28;20287;-78
2023/05/23 07:24:11;;;;;;;4.83;4.47;;;;;;;12.81;100.00;100271.00;4979467;28;20639;-80
2023/05/23 07:26:37;;;;;;;1.87;1.77;;;;;;;12.80;100.00;100274.88;4994940;28;20181;-79
2023/05/23 07:29:02;;;;;;;2.27;2.17;;;;;;;12.84;100.00;100268.72;4977889;28;20675;-82
2023/05/23 07:31:30;;;;;;;4.40;4.07;;;;;;;12.78;100.00;100273.59;4976607;28;20185;-85
2023/05/23 07:33:55;;;;;;;2.50;2.33;;;;;;;12.80;100.00;100288.59;4998126;28;20181;-82
2023/05/23 07:36:21;;;;;;;2.60;2.43;;;;;;;12.74;100.00;100276.19;4996517;28;20616;-81
2023/05/23 07:38:46;;;;;;;2.37;2.17;;;;;;;12.72;100.00;100274.91;4995306;28;20184;-83
2023/05/23 07:41:11;;;;;;;2.43;2.20;;;;;;;12.73;100.00;100280.09;4978334;28;20224;-80
2023/05/23 07:43:37;;;;;;;2.47;2.37;;;;;;;12.71;100.00;100276.84;4994150;28;20574;-80
2023/05/23 07:46:02;;;;;;;2.47;2.27;;;;;;;12.68;100.00;100279.44;4976343;28;20200;-80
2023/05/23 07:48:28;;;;;;;7.07;2.30;;;;;;;12.66;100.00;100284.44;4993407;28;20181;-78
2023/05/23 07:50:54;;;;;;;5.77;3.60;;;;;;;12.71;100.00;100287.00;4993962;28;20185;-79
2023/05/23 07:53:21;;;;;;;4.07;3.77;;;;;;;12.65;100.00;100282.84;4976002;28;20255;-80
2023/05/23 07:55:46;;;;;;;3.17;2.97;;;;;;;12.64;100.00;100286.72;4976268;28;20185;-79
2023/05/23 07:58:11;;;;;;;1.93;1.67;;;;;;;12.68;100.00;100301.38;4993768;28;20185;-81
2023/05/23 08:00:37;;;;;;;1.07;1.03;;;;;;;12.65;100.00;100300.09;4960256;28;20284;-79
2023/05/23 08:03:03;;;;;;;2.43;2.23;;;;;;;12.67;100.00;100297.03;4993797;28;20209;-80
2023/05/23 08:05:28;;;;;;;4.30;4.00;;;;;;;12.69;100.00;100303.78;4976339;28;20271;-78
2023/05/23 08:07:54;;;;;;;3.27;3.07;;;;;;;12.71;100.00;100307.00;4993285;28;20643;-79
2023/05/23 08:10:19;;;;;;;3.40;3.20;;;;;;;12.70;100.00;100310.88;4975591;28;20271;-79
2023/05/23 08:12:44;;;;;;;3.57;1.13;;;;;;;12.69;100.00;100311.19;4993198;28;20232;-80
2023/05/23 08:15:10;;;;;;;1.53;1.43;;;;;;;12.69;100.00;100309.25;4975794;28;20201;-79
2023/05/23 08:17:35;;;;;;;5.23;2.67;;;;;;;12.64;100.00;100316.88;4992860;28;20185;-79
2023/05/23 08:20:02;;;;;;;2.30;2.13;;;;;;;12.56;100.00;100315.75;4975526;28;20658;-80
2023/05/23 08:22:27;;;;;;;2.40;2.30;;;;;;;12.63;100.00;100331.72;4993098;28;20281;-80
2023/05/23 08:24:53;;;;;;;4.00;3.33;;;;;;;12.51;100.00;100332.38;4992685;28;20208;-80
2023/05/23 08:27:18;;;;;;;1.37;1.30;;;;;;;12.52;100.00;100337.53;4974973;28;20204;-78
2023/05/23 08:29:43;;;;;;;2.17;2.07;;;;;;;12.54;100.00;100342.69;4975452;28;20196;-79
2023/05/23 08:32:08;;;;;;;1.57;1.47;;;;;;;12.59;100.00;100345.28;4992099;28;20221;-77
2023/05/23 08:34:34;;;;;;;1.77;1.00;;;;;;;12.64;100.00;100347.03;4975302;28;20279;-78
2023/05/23 08:36:59;;;;;;;2.07;1.97;;;;;;;12.61;100.00;100355.91;4974564;28;20189;-78
2023/05/23 08:39:25;;;;;;;0.97;0.97;;;;;;;12.57;100.00;100347.50;4974953;28;20288;-78
2023/05/23 08:41:51;;;;;;;3.90;3.57;;;;;;;12.49;100.00;100346.41;4975019;28;20205;-78
2023/05/23 08:44:16;;;;;;;3.70;3.40;;;;;;;12.46;100.00;100358.03;4974709;28;20262;-77
2023/05/23 08:46:45;;;;;;;5.63;5.17;;;;;;;12.41;100.00;100352.72;4974142;28;20194;-79
2023/05/23 08:49:13;;;;;;;3.37;3.13;;;;;;;12.24;100.00;100377.41;4992307;28;20188;-79
2023/05/23 08:51:41;;;;;;;2.93;2.70;;;;;;;12.18;100.00;100359.53;4974597;28;20684;-78
2023/05/23 08:54:08;;;;;;;6.07;3.50;;;;;;;12.09;100.00;100375.16;4974611;28;20189;-78
2023/05/23 08:56:34;;;;;;;4.10;2.87;;;;;;;12.04;100.00;100369.84;4991678;28;20267;-77
2023/05/23 08:58:59;;;;;;;6.43;4.53;;;;;;;12.06;100.00;100384.84;4992011;28;20267;-79
2023/05/23 09:01:25;;;;;;;2.57;2.37;;;;;;;12.11;100.00;100384.66;4991614;28;20216;-78
2023/05/23 09:03:50;;;;;;;5.30;4.50;;;;;;;12.05;100.00;100390.63;4992008;28;20283;-78
2023/05/23 09:06:20;;;;;;;4.20;3.80;;;;;;;12.00;100.00;100388.03;4979284;28;20620;-78
2023/05/23 09:08:45;;;;;;;7.77;3.87;;;;;;;11.89;100.00;100393.84;4956386;28;20189;-78
2023/05/23 09:11:12;;;;;;;2.70;2.50;;;;;;;11.86;100.00;100404.63;4974834;28;20200;-78
2023/05/23 09:13:39;;;;;;;2.30;2.20;;;;;;;11.86;100.00;100405.44;4991850;28;20584;-77
2023/05/23 09:16:08;;;;;;;4.57;4.17;;;;;;;11.82;100.00;100412.66;4991635;28;20279;-78
2023/05/23 09:18:41;;;;;;;4.90;4.03;;;;;;;11.81;100.00;100413.00;4974155;28;20195;-78
2023/05/23 09:21:11;;;;;;;2.80;2.60;;;;;;;11.86;100.00;100415.56;4991926;28;20267;-78
2023/05/23 09:23:41;;;;;;;3.50;2.43;;;;;;;11.82;100.00;100417.34;4991820;28;20683;-78
2023/05/23 09:26:09;;;;;;;2.93;2.73;;;;;;;11.81;100.00;100413.00;4974472;28;20631;-77
2023/05/23 09:28:37;;;;;;;1.47;1.37;;;;;;;11.84;100.00;100426.84;4973910;28;20197;-76
2023/05/23 09:31:07;;;;;;;4.03;3.27;;;;;;;11.88;100.00;100433.31;4968103;28;21327;-77
2023/05/23 09:33:39;;;;;;;0.93;0.93;;;;;;;11.82;100.00;100431.03;4971080;28;20682;-78
2023/05/23 09:36:06;;;;;;;1.83;1.73;;;;;;;11.66;100.00;100441.59;4986164;28;20189;-77
2023/05/23 09:38:43;;;;;;;3.47;2.07;;;;;;;11.56;100.00;100450.09;4966300;28;20308;-78
2023/05/23 09:41:12;;;;;;;2.83;2.53;;;;;;;11.49;100.00;100450.56;4983543;28;20184;-78
2023/05/23 09:43:53;;;;;;;11.93;5.60;;;;;;;11.32;100.00;100437.66;4991456;28;20696;-78
2023/05/23 09:46:20;;;;;;;2.30;2.03;;;;;;;11.28;100.00;100461.28;4991688;28;20189;-79
2023/05/23 09:48:52;;;;;;;1.97;1.67;;;;;;;11.25;100.00;100458.34;4991106;28;20189;-78
2023/05/23 09:51:22;;;;;;;1.20;1.20;;;;;;;11.25;100.00;100461.09;4992137;28;20184;-83
2023/05/23 09:53:48;;;;;;;2.00;1.80;;;;;;;11.23;100.00;100453.22;4974327;28;20895;-80
2023/05/23 09:56:16;;;;;;;2.00;1.90;;;;;;;11.21;100.00;100466.41;4979525;28;20189;-84
2023/05/23 09:58:52;;;;;;;3.43;3.13;;;;;;;11.16;100.00;100471.19;4980452;28;20608;-87
2023/05/23 10:01:19;;;;;;;2.47;2.23;;;;;;;11.14;100.00;100476.16;4990335;28;20616;-79
2023/05/23 10:03:49;;;;;;;0.90;0.83;;;;;;;11.13;100.00;100482.75;4980175;28;20240;-82
2023/05/23 10:06:25;;;;;;;2.57;2.37;;;;;;;11.07;100.00;100484.81;4979826;28;20244;-81
2023/05/23 10:08:57;;;;;;;1.90;1.80;;;;;;;11.07;100.00;100495.75;4980156;28;20571;-81
2023/05/23 10:11:34;;;;;;;2.83;1.40;;;;;;;11.03;100.00;100498.31;4997566;28;20212;-80
2023/05/23 10:14:08;;;;;;;0.80;0.80;;;;;;;11.03;100.00;100498.31;4980238;28;20185;-81
2023/05/23 10:17:06;;;;;;;1.77;1.63;;;;;;;11.03;100.00;100503.78;4994526;28;20196;-81
2023/05/23 10:19:46;;;;;;;2.27;1.17;;;;;;;11.07;100.00;100503.97;4994359;28;20208;-80
2023/05/23 10:22:13;;;;;;;0.97;0.97;;;;;;;11.07;100.00;100514.09;4961466;28;20255;-79
2023/05/23 10:24:39;;;;;;;2.90;2.70;;;;;;;11.02;100.00;100517.75;4977748;28;20207;-81
2023/05/23 10:27:05;;;;;;;2.17;1.97;;;;;;;11.05;100.00;100528.06;4977582;28;20497;-81
2023/05/23 10:29:32;;;;;;;0.50;0.50;;;;;;;11.11;100.00;100517.81;4995440;28;20551;-80
2023/05/23 10:31:59;;;;;;;7.00;1.07;;;;;;;11.14;100.00;100530.84;4977938;28;20629;-80
2023/05/23 10:34:46;;;;;;;2.37;2.27;;;;;;;11.13;100.00;100532.78;4995392;28;20208;-80
2023/05/23 10:37:26;;;;;;;1.13;1.03;;;;;;;11.17;100.00;100543.91;4977662;28;20621;-80
2023/05/23 10:39:57;;;;;;;0.70;0.70;;;;;;;11.15;100.00;100532.47;4995491;28;20188;-81
2023/05/23 10:43:06;;;;;;;5.97;0.60;;;;;;;11.16;100.00;100540.38;4995530;28;20205;-81
2023/05/23 10:45:41;;;;;;;0.33;0.33;;;;;;;11.07;100.00;100542.22;4962708;28;20709;-79
2023/05/23 10:48:21;;;;;;;2.70;2.23;;;;;;;11.05;100.00;100544.47;4994837;28;20185;-81
2023/05/23 10:51:01;;;;;;;6.07;4.67;;;;;;;11.00;100.00;100547.34;4978932;28;20267;-79
2023/05/23 10:53:28;;;;;;;1.70;1.50;;;;;;;11.13;100.00;100548.38;4980286;28;20200;-78
2023/05/23 10:55:55;;;;;;;3.57;1.97;;;;;;;11.07;100.00;100553.16;4997320;28;20176;-81
2023/05/23 10:58:21;;;;;;;1.60;1.50;;;;;;;11.11;100.00;100559.63;4996770;28;20188;-79
2023/05/23 11:00:54;;;;;;;2.80;2.60;;;;;;;11.14;100.00;100560.91;4996914;28;20184;-81
2023/05/23 11:03:34;;;;;;;5.47;3.93;;;;;;;11.14;100.00;100559.03;4996866;28;20197;-81
2023/05/23 11:06:00;;;;;;;2.33;2.13;;;;;;;11.15;100.00;100568.84;4979188;28;20267;-81
2023/05/23 11:08:26;;;;;;;1.33;1.23;;;;;;;11.21;100.00;100575.78;4979332;28;20536;-80
2023/05/23 11:10:59;;;;;;;1.10;1.00;;;;;;;11.15;100.00;100578.97;4997695;28;20247;-80
2023/05/23 11:13:25;;;;;;;2.00;1.43;;;;;;;11.18;100.00;100578.34;4998027;28;20294;-81
2023/05/23 11:15:51;;;;;;;1.73;1.63;;;;;;;11.15;100.00;100592.66;4997475;28;20169;-81